Flight Track Log - Related Links

Times and Time Zones

All times are in EDT time to prevent confusion due to time zone crossing. See the CHH7028 flight status page for this flight to view local times or setup timezone preferences in your user account.

Time Position Orientation Groundspeed Altitude Reporting Facility
EDT Latitude Longitude Course Direction KTS MPH feet Rate Location/Type
Mon 02:12:00 PM 22.5325 113.6758 230° Southwest  Level Estimated
Mon 02:13:00 PM 22.4255 113.5393 230° Southwest  Level Estimated
Mon 02:14:00 PM 22.3183 113.4031 230° Southwest  Level Estimated
Mon 02:15:00 PM 22.2110 113.2671 230° Southwest  Level Estimated
Mon 02:16:00 PM 22.1036 113.1313 230° Southwest  Level Estimated
Mon 02:17:00 PM 21.9961 112.9957 229° Southwest  Level Estimated
Mon 02:18:00 PM 21.8885 112.8603 229° Southwest  Level Estimated
Mon 02:19:00 PM 21.7808 112.7251 229° Southwest  Level Estimated
Mon 02:20:00 PM 21.6729 112.5901 229° Southwest  Level Estimated
Mon 02:21:00 PM 21.5650 112.4553 229° Southwest  Level Estimated
Mon 02:22:00 PM 21.4569 112.3207 229° Southwest  Level Estimated
Mon 02:23:00 PM 21.3487 112.1863 229° Southwest  Level Estimated
Mon 02:24:00 PM 21.2405 112.0521 229° Southwest  Level Estimated
Mon 02:25:00 PM 21.1321 111.9181 229° Southwest  Level Estimated
Mon 02:26:00 PM 21.0236 111.7843 229° Southwest  Level Estimated
Mon 02:27:00 PM 20.9150 111.6507 229° Southwest  Level Estimated
Mon 02:28:00 PM 20.8063 111.5173 229° Southwest  Level Estimated
Mon 02:29:00 PM 20.6975 111.3841 229° Southwest  Level Estimated
Mon 02:30:00 PM 20.5886 111.2511 229° Southwest  Level Estimated
Mon 02:31:00 PM 20.4796 111.1182 229° Southwest  Level Estimated
Mon 02:32:00 PM 20.3705 110.9856 229° Southwest  Level Estimated
Mon 02:33:00 PM 20.2613 110.8531 229° Southwest  Level Estimated
Mon 02:34:00 PM 20.1520 110.7208 229° Southwest  Level Estimated
Mon 02:35:00 PM 20.0426 110.5888 229° Southwest  Level Estimated
Mon 02:36:00 PM 19.9349 110.4590 229° Southwest  Level Estimated
Mon 02:37:00 PM 19.9349 110.4590 167° South  Level Estimated
Mon 02:38:00 PM 19.9349 110.4590 167° South  Level Estimated
Mon 02:39:00 PM 19.9349 110.4590 167° South  Level Estimated
Mon 02:40:00 PM 19.9349 110.4590 167° South  Level Estimated
Mon 02:41:00 PM 19.9349 110.4590 167° South  Level Estimated
Mon 02:42:00 PM 19.9349 110.4590 167° South  Level Estimated
Mon 02:43:00 PM 19.9349 110.4590 167° South  Level Estimated
Mon 02:44:00 PM 19.9349 110.4590 167° South  Level Estimated
Mon 02:45:00 PM 19.9349 110.4590 167° South  Level Estimated
Mon 02:46:00 PM 19.9349 110.4590 167° South  Level Estimated
Mon 02:47:00 PM 19.9349 110.4590 167° South  Level Estimated
Mon 02:48:00 PM 19.9349 110.4590 167° South  Level Estimated
Mon 02:49:00 PM 19.9349 110.4590 167° South  Level Estimated
Mon 02:50:00 PM 19.9349 110.4590 167° South  Level Estimated
Mon 02:51:00 PM 19.9349 110.4590 167° South  Level Estimated
Mon 02:52:00 PM 19.9349 110.4590 167° South  Level Estimated

Login

Don't have an account? Register now (free) for customized features, flight alerts, and more!